createdAt,value
2024-04-04T00:02:02.079Z,89.08
2024-04-04T00:07:04.809Z,89.05
2024-04-04T00:12:07.560Z,88.83
2024-04-04T00:17:10.274Z,87.50
2024-04-04T00:22:13.361Z,87.34
2024-04-04T00:27:17.246Z,87.00
2024-04-04T00:32:20.417Z,87.04
2024-04-04T00:37:23.130Z,85.96
2024-04-04T00:42:25.706Z,85.76
2024-04-04T00:47:28.442Z,85.75
2024-04-04T00:52:31.256Z,85.46
2024-04-04T00:57:35.227Z,85.59
2024-04-04T01:02:38.413Z,85.30
2024-04-04T01:07:41.378Z,85.85
2024-04-04T01:12:44.003Z,85.97
2024-04-04T01:17:46.676Z,85.84
2024-04-04T01:22:50.379Z,86.03
2024-04-04T01:27:54.447Z,86.54
2024-04-04T01:32:57.089Z,86.44
2024-04-04T01:37:59.903Z,86.22
2024-04-04T01:43:03.811Z,86.24
2024-04-04T01:48:06.931Z,86.43
2024-04-04T01:53:09.560Z,86.20
2024-04-04T01:58:12.186Z,86.12
2024-04-04T02:03:15.224Z,86.17
2024-04-04T02:08:17.941Z,86.12
2024-04-04T02:13:20.958Z,85.71
2024-04-04T02:18:24.677Z,85.76
2024-04-04T02:23:29.115Z,85.39
2024-04-04T02:28:31.816Z,85.68
2024-04-04T02:33:34.510Z,85.80
2024-04-04T02:38:37.544Z,85.70
2024-04-04T02:43:40.528Z,85.69
2024-04-04T02:48:44.409Z,85.67
2024-04-04T02:53:47.051Z,85.51
2024-04-04T02:58:50.029Z,86.03
2024-04-04T03:03:52.721Z,85.46
2024-04-04T03:08:55.663Z,85.65
2024-04-04T03:13:58.541Z,85.95
2024-04-04T03:19:01.227Z,86.16
2024-04-04T03:24:03.971Z,85.89
2024-04-04T03:29:06.620Z,85.98
2024-04-04T03:34:09.304Z,88.58
2024-04-04T03:39:12.065Z,92.41
2024-04-04T03:44:14.804Z,91.13
2024-04-04T03:49:17.445Z,90.80
2024-04-04T03:54:20.089Z,89.44
2024-04-04T03:59:24.691Z,88.88
2024-04-04T04:04:27.341Z,88.30
2024-04-04T04:09:30.023Z,86.47
2024-04-04T04:14:33.308Z,85.35
2024-04-04T04:19:35.988Z,84.83
2024-04-04T04:24:38.880Z,84.81
2024-04-04T04:29:41.707Z,84.50
2024-04-04T04:34:44.372Z,83.73
2024-04-04T04:39:47.333Z,83.51
2024-04-04T04:44:49.942Z,82.72
2024-04-04T04:49:53.435Z,82.61
2024-04-04T04:54:56.198Z,81.36
2024-04-04T04:59:59.353Z,81.53
2024-04-04T05:05:16.445Z,80.73
2024-04-04T05:10:19.025Z,81.35
2024-04-04T05:15:21.705Z,81.73
2024-04-04T05:20:24.331Z,81.54
2024-04-04T05:25:28.331Z,81.26
2024-04-04T05:30:32.605Z,80.58
2024-04-04T05:35:35.340Z,80.57
2024-04-04T05:40:38.027Z,81.08
2024-04-04T05:45:40.793Z,80.45
2024-04-04T05:50:43.817Z,81.14
2024-04-04T05:55:47.976Z,80.53
2024-04-04T06:00:50.742Z,80.47
2024-04-04T06:05:53.400Z,80.33
2024-04-04T06:10:56.170Z,80.09
2024-04-04T06:16:04.794Z,80.15
2024-04-04T06:21:07.659Z,80.33
2024-04-04T06:26:10.285Z,80.09
2024-04-04T06:31:13.169Z,80.70
2024-04-04T06:36:17.567Z,80.68
2024-04-04T06:41:20.273Z,81.05
2024-04-04T06:46:23.007Z,82.04
2024-04-04T06:51:28.806Z,82.24
2024-04-04T06:56:31.687Z,81.93
2024-04-04T07:01:35.942Z,81.86
2024-04-04T07:06:39.385Z,81.98
2024-04-04T07:11:42.791Z,81.38
2024-04-04T07:16:45.583Z,79.99
2024-04-04T07:21:50.294Z,79.66
2024-04-04T07:26:53.193Z,79.73
2024-04-04T07:31:56.698Z,78.90
2024-04-04T07:36:59.574Z,78.30
2024-04-04T07:42:02.803Z,77.91
2024-04-04T07:47:06.108Z,77.19
2024-04-04T07:52:09.129Z,77.80
2024-04-04T07:57:13.283Z,79.17
2024-04-04T08:02:17.533Z,80.42
2024-04-04T08:07:20.675Z,81.04
2024-04-04T08:12:23.488Z,80.26
2024-04-04T08:17:26.254Z,80.07
2024-04-04T08:22:28.957Z,79.54
2024-04-04T08:27:31.587Z,80.71
2024-04-04T08:32:36.471Z,80.41
2024-04-04T08:37:40.190Z,80.29
2024-04-04T08:42:44.010Z,79.32
2024-04-04T08:47:46.935Z,80.01
2024-04-04T08:52:49.652Z,80.22
2024-04-04T08:57:52.279Z,80.57
2024-04-04T09:02:54.994Z,80.58
2024-04-04T09:07:58.987Z,81.56
2024-04-04T09:13:02.602Z,81.09
2024-04-04T09:18:06.229Z,81.34
2024-04-04T09:23:11.221Z,82.55
2024-04-04T09:28:15.408Z,83.54
2024-04-04T09:33:21.645Z,84.53
2024-04-04T09:38:27.327Z,85.01
2024-04-04T09:43:30.040Z,85.62
2024-04-04T09:48:37.058Z,86.30
2024-04-04T09:53:41.543Z,86.68
2024-04-04T09:58:47.587Z,86.86
2024-04-04T10:04:00.846Z,87.81
2024-04-04T10:09:16.889Z,88.10
2024-04-04T10:14:21.449Z,88.67
2024-04-04T10:19:25.466Z,89.01
2024-04-04T10:24:28.124Z,89.82
2024-04-04T10:29:36.858Z,90.41
2024-04-04T10:34:42.969Z,91.05
2024-04-04T10:39:51.264Z,90.84
2024-04-04T10:44:55.368Z,90.53
2024-04-04T10:49:58.550Z,89.84
2024-04-04T10:55:05.454Z,89.24
2024-04-04T11:00:14.815Z,88.84
2024-04-04T11:05:19.706Z,88.24
2024-04-04T11:10:24.291Z,88.03
2024-04-04T11:15:27.264Z,87.98
2024-04-04T11:20:30.014Z,87.80
2024-04-04T11:25:32.864Z,86.55
2024-04-04T11:30:35.662Z,85.18
2024-04-04T11:35:38.680Z,85.21
2024-04-04T11:40:41.980Z,85.03
2024-04-04T11:45:45.199Z,84.15
2024-04-04T11:50:48.008Z,83.45
2024-04-04T11:55:53.323Z,82.76
2024-04-04T12:00:56.076Z,82.23
2024-04-04T12:06:00.105Z,82.37
2024-04-04T12:11:05.799Z,82.42
2024-04-04T12:16:09.785Z,83.00
2024-04-04T12:21:18.828Z,83.19
2024-04-04T12:26:21.479Z,83.26
2024-04-04T12:31:24.182Z,82.59
2024-04-04T12:36:27.011Z,81.86
2024-04-04T12:41:29.922Z,81.89
2024-04-04T12:46:37.038Z,81.82
2024-04-04T12:51:40.198Z,81.46
2024-04-04T12:56:43.179Z,81.13
2024-04-04T13:01:47.498Z,80.94
2024-04-04T13:06:50.448Z,80.63
2024-04-04T13:11:53.210Z,80.80
2024-04-04T13:16:57.430Z,81.17
2024-04-04T13:22:00.400Z,82.44
2024-04-04T13:27:04.455Z,83.25
2024-04-04T13:32:07.444Z,84.78
2024-04-04T13:37:10.206Z,85.71
2024-04-04T13:42:12.957Z,86.35
2024-04-04T13:47:17.215Z,87.21
2024-04-04T13:52:20.687Z,87.79
2024-04-04T13:57:23.422Z,88.38
2024-04-04T14:02:26.101Z,89.04
2024-04-04T14:07:29.359Z,88.97
2024-04-04T14:12:32.480Z,88.29
2024-04-04T14:17:38.442Z,87.71
2024-04-04T14:22:41.206Z,87.11
2024-04-04T14:27:44.092Z,87.11
2024-04-04T14:32:47.038Z,87.56
2024-04-04T14:37:51.730Z,87.94
2024-04-04T14:42:54.526Z,87.35
2024-04-04T14:47:57.569Z,87.53
2024-04-04T14:53:00.270Z,87.45
2024-04-04T14:58:09.214Z,88.29
2024-04-04T15:03:13.103Z,88.83
2024-04-04T15:08:16.106Z,88.90
2024-04-04T15:13:19.107Z,89.62
2024-04-04T15:18:22.022Z,90.06
2024-04-04T15:23:24.998Z,90.12
2024-04-04T15:28:27.715Z,90.17
2024-04-04T15:33:31.240Z,90.79
2024-04-04T15:38:34.070Z,90.83
2024-04-04T15:43:37.187Z,91.59
2024-04-04T15:48:42.845Z,92.37
2024-04-04T15:53:45.510Z,93.21
2024-04-04T15:58:48.111Z,93.98
2024-04-04T16:03:50.812Z,94.69
2024-04-04T16:08:54.472Z,95.48
2024-04-04T16:13:57.564Z,96.44
2024-04-04T16:19:00.263Z,97.14
2024-04-04T16:24:04.156Z,98.01
2024-04-04T16:29:07.863Z,98.89
2024-04-04T16:34:11.163Z,99.28
2024-04-04T16:39:14.610Z,99.93
2024-04-04T16:44:17.699Z,99.94
2024-04-04T16:49:20.419Z,100.00
2024-04-04T16:54:23.199Z,100.00
2024-04-04T16:59:25.888Z,100.00
2024-04-04T17:04:28.561Z,100.00
2024-04-04T17:09:31.225Z,100.00
2024-04-04T17:14:34.661Z,100.00
2024-04-04T17:19:38.600Z,100.00
2024-04-04T17:24:41.682Z,100.00
2024-04-04T17:29:46.371Z,100.00
2024-04-04T17:34:49.048Z,100.00
2024-04-04T17:39:51.699Z,100.00
2024-04-04T17:44:54.382Z,100.00
2024-04-04T17:49:57.596Z,100.00
2024-04-04T17:55:00.982Z,100.00
2024-04-04T18:00:05.244Z,100.00
2024-04-04T18:05:08.130Z,100.00
2024-04-04T18:10:10.894Z,100.00
2024-04-04T18:20:18.372Z,100.00
2024-04-04T18:25:21.568Z,100.00
2024-04-04T18:30:24.282Z,100.00
2024-04-04T18:35:27.128Z,100.00
2024-04-04T18:40:29.870Z,100.00
2024-04-04T18:45:33.076Z,100.00
2024-04-04T18:50:36.547Z,100.00
2024-04-04T18:55:39.297Z,100.00
2024-04-04T19:00:45.997Z,100.00
2024-04-04T19:05:55.512Z,100.00
2024-04-04T19:10:58.856Z,100.00
2024-04-04T19:16:03.808Z,100.00
2024-04-04T19:21:09.728Z,100.00
2024-04-04T19:26:12.385Z,100.00
2024-04-04T19:31:15.053Z,100.00
2024-04-04T19:36:18.476Z,100.00
2024-04-04T19:41:21.089Z,100.00
2024-04-04T19:46:23.783Z,100.00
2024-04-04T19:51:26.427Z,100.00
2024-04-04T19:56:29.031Z,100.00
2024-04-04T20:01:32.263Z,100.00
2024-04-04T20:06:34.896Z,100.00
2024-04-04T20:11:38.154Z,100.00
2024-04-04T20:16:42.115Z,100.00
2024-04-04T20:21:45.283Z,100.00
2024-04-04T20:26:47.959Z,100.00
2024-04-04T20:31:50.780Z,100.00
2024-04-04T20:36:53.409Z,100.00
2024-04-04T20:41:56.189Z,100.00
2024-04-04T20:46:58.845Z,100.00
2024-04-04T20:52:02.242Z,100.00
2024-04-04T20:57:05.197Z,100.00
2024-04-04T21:02:08.743Z,100.00
2024-04-04T21:07:11.368Z,100.00
2024-04-04T21:12:14.010Z,100.00
2024-04-04T21:17:17.181Z,100.00
2024-04-04T21:22:19.817Z,100.00
2024-04-04T21:27:22.772Z,100.00
2024-04-04T21:32:25.378Z,100.00
2024-04-04T21:37:28.010Z,100.00
2024-04-04T21:42:32.654Z,100.00
2024-04-04T21:47:35.676Z,100.00
2024-04-04T21:52:38.539Z,100.00
2024-04-04T21:57:41.255Z,100.00
2024-04-04T22:02:44.459Z,100.00
2024-04-04T22:07:47.107Z,100.00
2024-04-04T22:12:49.828Z,100.00
2024-04-04T22:17:53.404Z,100.00
2024-04-04T22:22:56.000Z,100.00
2024-04-04T22:27:59.230Z,100.00
2024-04-04T22:33:03.007Z,100.00
2024-04-04T22:38:06.080Z,100.00
2024-04-04T22:43:09.283Z,100.00
2024-04-04T22:48:15.554Z,100.00
2024-04-04T22:53:18.485Z,100.00
2024-04-04T22:58:24.135Z,100.00
2024-04-04T23:03:27.809Z,100.00
2024-04-04T23:08:30.522Z,100.00
2024-04-04T23:13:34.630Z,100.00
2024-04-04T23:18:37.377Z,100.00
2024-04-04T23:23:40.643Z,100.00
2024-04-04T23:28:45.346Z,100.00
2024-04-04T23:33:48.040Z,100.00
2024-04-04T23:38:51.104Z,100.00
2024-04-04T23:43:53.759Z,100.00
2024-04-04T23:48:56.363Z,100.00
2024-04-04T23:53:59.469Z,100.00
2024-04-04T23:59:02.333Z,100.00
